createdAt,value
2023-03-02T00:01:36.822Z,1.39
2023-03-02T00:04:45.057Z,1.40
2023-03-02T00:07:49.110Z,1.31
2023-03-02T00:10:51.840Z,1.22
2023-03-02T00:13:54.560Z,1.15
2023-03-02T00:16:57.342Z,1.10
2023-03-02T00:20:11.565Z,1.17
2023-03-02T00:23:16.528Z,1.09
2023-03-02T00:26:19.540Z,1.11
2023-03-02T00:29:22.210Z,1.07
2023-03-02T00:32:25.240Z,1.01
2023-03-02T00:35:27.934Z,1.07
2023-03-02T00:38:31.992Z,1.11
2023-03-02T00:41:34.668Z,1.03
2023-03-02T00:44:37.367Z,1.08
2023-03-02T00:47:41.504Z,0.98
2023-03-02T00:50:44.181Z,0.99
2023-03-02T00:53:48.108Z,0.99
2023-03-02T00:56:50.715Z,1.00
2023-03-02T00:59:53.459Z,0.89
2023-03-02T01:02:56.697Z,0.84
2023-03-02T01:06:00.739Z,0.86
2023-03-02T01:09:04.889Z,0.91
2023-03-02T01:12:09.411Z,0.89
2023-03-02T01:15:12.436Z,0.76
2023-03-02T01:18:15.020Z,0.76
2023-03-02T01:21:17.671Z,0.73
2023-03-02T01:24:21.702Z,0.82
2023-03-02T01:27:24.382Z,0.71
2023-03-02T01:30:26.973Z,0.61
2023-03-02T01:33:29.812Z,0.61
2023-03-02T01:36:35.424Z,0.64
2023-03-02T01:39:39.427Z,0.57
2023-03-02T01:42:48.349Z,0.57
2023-03-02T01:45:54.265Z,0.51
2023-03-02T01:48:59.974Z,0.47
2023-03-02T01:52:03.001Z,0.45
2023-03-02T01:55:10.084Z,0.45
2023-03-02T01:58:13.537Z,0.42
2023-03-02T02:01:16.394Z,0.41
2023-03-02T02:04:19.361Z,0.40
2023-03-02T02:07:22.138Z,0.45
2023-03-02T02:10:26.220Z,0.54
2023-03-02T02:13:40.073Z,0.51
2023-03-02T02:16:42.926Z,0.39
2023-03-02T02:19:57.246Z,0.43
2023-03-02T02:23:07.556Z,0.45
2023-03-02T02:26:22.959Z,0.36
2023-03-02T02:29:27.460Z,0.37
2023-03-02T02:32:33.831Z,0.23
2023-03-02T02:35:38.645Z,0.30
2023-03-02T02:38:41.698Z,0.30
2023-03-02T02:41:47.942Z,0.22
2023-03-02T02:44:57.482Z,0.28
2023-03-02T02:48:00.108Z,0.30
2023-03-02T02:51:03.233Z,0.35
2023-03-02T02:54:16.209Z,0.28
2023-03-02T02:57:20.677Z,0.22
2023-03-02T03:00:24.176Z,0.20
2023-03-02T03:03:31.906Z,0.20
2023-03-02T03:06:42.163Z,0.21
2023-03-02T03:09:45.306Z,0.19
2023-03-02T03:12:49.487Z,0.23
2023-03-02T03:15:52.158Z,0.20
2023-03-02T03:18:55.738Z,0.24
2023-03-02T03:22:00.133Z,0.15
2023-03-02T03:25:03.482Z,-0.01
2023-03-02T03:28:07.612Z,0.06
2023-03-02T03:31:10.554Z,0.08
2023-03-02T03:34:13.345Z,0.06
2023-03-02T03:37:19.209Z,-0.10
2023-03-02T03:40:21.938Z,0.04
2023-03-02T03:43:25.853Z,0.10
2023-03-02T03:46:28.474Z,0.09
2023-03-02T03:49:31.717Z,0.05
2023-03-02T03:52:34.323Z,-0.06
2023-03-02T03:55:36.910Z,-0.10
2023-03-02T03:58:41.073Z,-0.19
2023-03-02T04:01:45.747Z,-0.14
2023-03-02T04:04:49.581Z,-0.19
2023-03-02T04:07:52.278Z,-0.20
2023-03-02T04:10:54.851Z,-0.15
2023-03-02T04:13:58.904Z,-0.18
2023-03-02T04:17:05.458Z,-0.15
2023-03-02T04:20:09.560Z,-0.16
2023-03-02T04:23:12.453Z,-0.15
2023-03-02T04:26:15.168Z,-0.11
2023-03-02T04:29:37.659Z,-0.19
2023-03-02T04:32:40.369Z,-0.23
2023-03-02T04:35:43.106Z,-0.18
2023-03-02T04:38:45.817Z,-0.27
2023-03-02T04:41:49.090Z,-0.25
2023-03-02T04:44:53.270Z,-0.30
2023-03-02T04:47:55.955Z,-0.21
2023-03-02T04:50:58.525Z,-0.12
2023-03-02T04:54:03.038Z,0.00
2023-03-02T04:57:05.665Z,0.17
2023-03-02T05:00:12.844Z,0.22
2023-03-02T05:03:15.521Z,0.21
2023-03-02T05:06:18.660Z,0.31
2023-03-02T05:09:27.140Z,0.41
2023-03-02T05:12:33.246Z,0.56
2023-03-02T05:15:38.909Z,0.80
2023-03-02T05:18:41.522Z,1.12
2023-03-02T05:21:44.457Z,1.31
2023-03-02T05:24:47.383Z,1.43
2023-03-02T05:27:50.558Z,1.48
2023-03-02T05:30:54.977Z,1.58
2023-03-02T05:33:57.742Z,1.57
2023-03-02T05:37:00.338Z,1.68
2023-03-02T05:40:03.272Z,1.75
2023-03-02T05:43:07.166Z,1.82
2023-03-02T05:46:11.252Z,1.96
2023-03-02T05:49:14.130Z,1.98
2023-03-02T05:52:16.717Z,1.98
2023-03-02T05:55:20.341Z,2.08
2023-03-02T05:58:22.968Z,2.24
2023-03-02T06:01:27.059Z,2.28
2023-03-02T06:04:29.699Z,2.36
2023-03-02T06:07:32.381Z,2.40
2023-03-02T06:10:35.405Z,2.47
2023-03-02T06:13:38.181Z,2.51
2023-03-02T06:16:42.378Z,2.63
2023-03-02T06:19:45.072Z,2.67
2023-03-02T06:22:48.150Z,2.76
2023-03-02T06:25:51.015Z,2.77
2023-03-02T06:28:54.201Z,2.78
2023-03-02T06:31:58.424Z,2.93
2023-03-02T06:35:01.530Z,3.02
2023-03-02T06:38:04.228Z,2.87
2023-03-02T06:41:06.867Z,2.92
2023-03-02T06:44:09.419Z,3.00
2023-03-02T06:47:13.381Z,2.95
2023-03-02T06:50:16.248Z,3.02
2023-03-02T06:53:20.413Z,3.06
2023-03-02T06:56:23.043Z,3.25
2023-03-02T06:59:26.069Z,3.34
2023-03-02T07:02:30.040Z,3.28
2023-03-02T07:05:33.119Z,3.37
2023-03-02T07:08:36.087Z,3.21
2023-03-02T07:11:38.755Z,3.26
2023-03-02T07:14:41.919Z,3.37
2023-03-02T07:17:46.815Z,3.25
2023-03-02T07:20:49.397Z,3.36
2023-03-02T07:23:52.084Z,3.50
2023-03-02T07:26:54.979Z,3.53
2023-03-02T07:29:57.859Z,3.73
2023-03-02T07:33:01.892Z,3.91
2023-03-02T07:36:05.243Z,4.00
2023-03-02T07:39:08.119Z,4.29
2023-03-02T07:42:13.089Z,4.58
2023-03-02T07:45:16.810Z,4.69
2023-03-02T07:48:23.222Z,5.04
2023-03-02T07:51:26.364Z,5.15
2023-03-02T07:54:30.501Z,5.19
2023-03-02T07:57:33.106Z,5.25
2023-03-02T08:00:36.697Z,5.09
2023-03-02T08:03:40.745Z,5.31
2023-03-02T08:06:43.851Z,5.52
2023-03-02T08:09:46.602Z,5.72
2023-03-02T08:12:49.258Z,5.61
2023-03-02T08:15:52.020Z,5.78
2023-03-02T08:18:59.518Z,6.07
2023-03-02T08:22:02.704Z,6.20
2023-03-02T08:25:07.349Z,6.27
2023-03-02T08:28:10.103Z,6.56
2023-03-02T08:31:13.548Z,6.79
2023-03-02T08:34:17.774Z,6.82
2023-03-02T08:37:21.056Z,6.99
2023-03-02T08:40:23.964Z,7.11
2023-03-02T08:43:27.306Z,7.48
2023-03-02T08:46:30.657Z,7.64
2023-03-02T08:49:35.400Z,7.63
2023-03-02T08:52:38.181Z,8.01
2023-03-02T08:55:40.979Z,7.86
2023-03-02T08:58:44.749Z,8.03
2023-03-02T09:01:47.267Z,8.04
2023-03-02T09:04:51.342Z,7.99
2023-03-02T09:07:54.166Z,7.89
2023-03-02T09:10:56.814Z,7.28
2023-03-02T09:13:59.531Z,6.69
2023-03-02T09:17:02.268Z,6.89
2023-03-02T09:20:08.092Z,6.97
2023-03-02T09:23:12.489Z,6.93
2023-03-02T09:26:15.351Z,7.05
2023-03-02T09:29:18.164Z,6.95
2023-03-02T09:32:20.966Z,6.97
2023-03-02T09:35:25.037Z,6.96
2023-03-02T09:38:27.783Z,7.14
2023-03-02T09:41:53.794Z,7.29
2023-03-02T09:45:04.693Z,7.24
2023-03-02T09:48:14.698Z,7.76
2023-03-02T09:51:27.165Z,8.14
2023-03-02T09:54:30.170Z,8.24
2023-03-02T09:57:38.484Z,8.50
2023-03-02T10:00:44.030Z,8.66
2023-03-02T10:03:51.633Z,9.26
2023-03-02T10:06:59.187Z,9.67
2023-03-02T10:10:05.875Z,9.98
2023-03-02T10:13:18.034Z,10.05
2023-03-02T10:16:29.374Z,10.26
2023-03-02T10:19:41.619Z,10.58
2023-03-02T10:22:48.286Z,10.53
2023-03-02T10:25:54.131Z,10.73
2023-03-02T10:29:02.710Z,10.62
2023-03-02T10:32:11.687Z,10.17
2023-03-02T10:35:16.384Z,9.98
2023-03-02T10:38:23.049Z,10.18
2023-03-02T10:41:28.212Z,9.82
2023-03-02T10:44:33.163Z,9.50
2023-03-02T10:47:35.929Z,9.59
2023-03-02T10:50:38.928Z,8.88
2023-03-02T10:53:43.062Z,8.81
2023-03-02T10:56:52.974Z,8.38
2023-03-02T11:00:00.269Z,8.91
2023-03-02T11:03:06.890Z,9.04
2023-03-02T11:06:19.161Z,9.18
2023-03-02T11:09:23.154Z,9.18
2023-03-02T11:12:26.036Z,9.20
2023-03-02T11:15:35.895Z,9.36
2023-03-02T11:18:39.714Z,9.38
2023-03-02T11:21:45.460Z,9.73
2023-03-02T11:24:52.158Z,9.80
2023-03-02T11:27:59.323Z,9.90
2023-03-02T11:31:02.981Z,10.33
2023-03-02T11:34:26.419Z,10.35
2023-03-02T11:37:32.302Z,9.74
2023-03-02T11:40:43.081Z,9.62
2023-03-02T11:43:46.148Z,9.58
2023-03-02T11:46:51.452Z,9.64
2023-03-02T11:49:56.667Z,9.38
2023-03-02T11:53:02.152Z,10.07
2023-03-02T11:56:06.760Z,10.73
2023-03-02T11:59:14.596Z,10.63
2023-03-02T12:02:17.818Z,10.48
2023-03-02T12:05:26.529Z,10.67
2023-03-02T12:08:35.148Z,10.63
2023-03-02T12:11:41.374Z,10.72
2023-03-02T12:14:44.358Z,11.03
2023-03-02T12:17:47.059Z,10.72
2023-03-02T12:21:00.722Z,10.83
2023-03-02T12:24:06.402Z,10.93
2023-03-02T12:27:26.558Z,10.65
2023-03-02T12:30:30.594Z,11.11
2023-03-02T12:33:33.275Z,11.49
2023-03-02T12:36:42.583Z,11.55
2023-03-02T12:40:26.021Z,11.49
2023-03-02T12:43:32.495Z,11.55
2023-03-02T12:46:36.765Z,11.66
2023-03-02T12:49:49.476Z,11.32
2023-03-02T12:52:59.505Z,11.80
2023-03-02T12:56:02.493Z,12.43
2023-03-02T12:59:06.581Z,12.95
2023-03-02T13:02:17.347Z,13.32
2023-03-02T13:05:21.735Z,12.94
2023-03-02T13:08:28.730Z,13.51
2023-03-02T13:11:34.366Z,19.47
2023-03-02T13:14:41.587Z,24.10
2023-03-02T13:17:45.477Z,26.40
2023-03-02T13:20:49.542Z,27.95
2023-03-02T13:24:07.645Z,28.92
2023-03-02T13:27:17.147Z,30.24
2023-03-02T13:30:26.494Z,30.34
2023-03-02T13:33:30.586Z,30.65
2023-03-02T13:36:38.607Z,28.82
2023-03-02T13:39:41.271Z,27.71
2023-03-02T13:42:43.975Z,28.05
2023-03-02T13:45:54.291Z,27.84
2023-03-02T13:49:11.663Z,29.10
2023-03-02T13:52:19.720Z,29.63
2023-03-02T13:55:23.476Z,29.66
2023-03-02T13:58:26.486Z,26.17
2023-03-02T14:01:30.639Z,26.13
2023-03-02T14:04:33.711Z,24.70
2023-03-02T14:07:36.625Z,22.52
2023-03-02T14:10:41.212Z,21.95
2023-03-02T14:13:46.096Z,25.17
2023-03-02T14:16:50.440Z,28.01
2023-03-02T14:19:55.393Z,29.65
2023-03-02T14:22:58.424Z,26.45
2023-03-02T14:26:01.206Z,27.08
2023-03-02T14:29:06.431Z,26.89
2023-03-02T14:32:13.855Z,29.25
2023-03-02T14:35:17.500Z,28.38
2023-03-02T14:38:21.162Z,28.61
2023-03-02T14:41:25.085Z,29.15
2023-03-02T14:44:28.038Z,29.62
2023-03-02T14:47:32.198Z,28.88
2023-03-02T14:50:38.497Z,27.58
2023-03-02T14:53:41.496Z,26.73
2023-03-02T14:56:44.657Z,27.03
2023-03-02T14:59:47.467Z,26.82
2023-03-02T15:02:52.002Z,25.82
2023-03-02T15:06:01.170Z,26.96
2023-03-02T15:09:05.615Z,26.11
2023-03-02T15:12:09.077Z,25.38
2023-03-02T15:15:13.196Z,24.63
2023-03-02T15:18:19.891Z,25.70
2023-03-02T15:21:24.963Z,26.39
2023-03-02T15:24:27.702Z,24.19
2023-03-02T15:27:31.387Z,21.79
2023-03-02T15:30:34.193Z,20.53
2023-03-02T15:33:38.218Z,18.14
2023-03-02T15:36:41.519Z,16.77
2023-03-02T15:39:45.660Z,16.27
2023-03-02T15:42:48.375Z,17.62
2023-03-02T15:45:51.820Z,19.49
2023-03-02T15:48:55.881Z,20.60
2023-03-02T15:51:59.198Z,21.37
2023-03-02T15:55:02.305Z,21.38
2023-03-02T15:58:08.244Z,22.27
2023-03-02T16:01:12.204Z,21.82
2023-03-02T16:04:16.508Z,22.04
2023-03-02T16:07:19.902Z,21.19
2023-03-02T16:10:25.041Z,21.32
2023-03-02T16:13:28.204Z,19.83
2023-03-02T16:16:31.095Z,17.12
2023-03-02T16:19:35.882Z,14.64
2023-03-02T16:22:38.604Z,13.21
2023-03-02T16:25:43.497Z,12.54
2023-03-02T16:28:46.822Z,11.95
2023-03-02T16:31:49.675Z,11.63
2023-03-02T16:34:55.198Z,11.47
2023-03-02T16:37:58.937Z,11.20
2023-03-02T16:41:02.336Z,11.10
2023-03-02T16:44:05.189Z,10.84
2023-03-02T16:47:07.779Z,10.63
2023-03-02T16:50:13.988Z,10.57
2023-03-02T16:53:19.510Z,10.28
2023-03-02T16:56:22.437Z,10.15
2023-03-02T16:59:25.040Z,10.00
2023-03-02T17:02:29.316Z,9.87
2023-03-02T17:05:33.560Z,9.80
2023-03-02T17:08:36.850Z,9.68
2023-03-02T17:11:39.578Z,9.73
2023-03-02T17:14:42.416Z,9.78
2023-03-02T17:17:45.121Z,9.80
2023-03-02T17:20:52.473Z,9.74
2023-03-02T17:23:55.160Z,9.85
2023-03-02T17:26:58.077Z,9.80
2023-03-02T17:30:01.139Z,9.79
2023-03-02T17:33:04.006Z,9.78
2023-03-02T17:36:12.065Z,9.66
2023-03-02T17:39:14.942Z,9.55
2023-03-02T17:42:17.762Z,9.43
2023-03-02T17:45:22.835Z,9.53
2023-03-02T17:48:26.639Z,9.55
2023-03-02T17:51:30.954Z,9.45
2023-03-02T17:54:33.641Z,9.36
2023-03-02T17:57:36.334Z,9.26
2023-03-02T18:00:40.522Z,9.15
2023-03-02T18:03:45.126Z,9.06
2023-03-02T18:06:49.663Z,8.94
2023-03-02T18:09:52.389Z,8.81
2023-03-02T18:12:56.795Z,8.66
2023-03-02T18:16:01.426Z,8.49
2023-03-02T18:19:04.440Z,8.37
2023-03-02T18:22:08.539Z,8.17
2023-03-02T18:25:11.791Z,8.05
2023-03-02T18:28:14.535Z,8.03
2023-03-02T18:31:18.350Z,7.94
2023-03-02T18:34:21.693Z,7.86
2023-03-02T18:37:25.729Z,7.73
2023-03-02T18:40:29.995Z,7.72
2023-03-02T18:43:34.698Z,7.51
2023-03-02T18:46:37.483Z,7.22
2023-03-02T18:49:42.735Z,7.14
2023-03-02T18:52:47.213Z,7.07
2023-03-02T18:55:50.654Z,7.03
2023-03-02T18:58:53.740Z,6.86
2023-03-02T19:01:57.398Z,6.69
2023-03-02T19:05:01.314Z,6.61
2023-03-02T19:08:08.546Z,6.60
2023-03-02T19:11:11.968Z,6.64
2023-03-02T19:14:15.190Z,6.71
2023-03-02T19:17:18.399Z,6.72
2023-03-02T19:20:22.064Z,6.87
2023-03-02T19:23:26.571Z,6.83
2023-03-02T19:26:29.550Z,6.82
2023-03-02T19:29:32.181Z,6.83
2023-03-02T19:32:35.140Z,6.80
2023-03-02T19:35:38.702Z,6.73
2023-03-02T19:38:44.409Z,6.69
2023-03-02T19:41:47.572Z,6.60
2023-03-02T19:44:50.634Z,6.52
2023-03-02T19:47:53.862Z,6.52
2023-03-02T19:50:57.737Z,6.58
2023-03-02T19:54:03.956Z,6.52
2023-03-02T19:57:08.070Z,6.34
2023-03-02T20:00:15.378Z,6.26
2023-03-02T20:03:18.666Z,6.22
2023-03-02T20:06:21.705Z,6.12
2023-03-02T20:09:27.660Z,5.99
2023-03-02T20:12:30.476Z,5.90
2023-03-02T20:15:34.612Z,5.82
2023-03-02T20:18:38.384Z,5.81
2023-03-02T20:21:41.186Z,5.75
2023-03-02T20:24:45.856Z,5.59
2023-03-02T20:27:51.883Z,5.48
2023-03-02T20:30:56.906Z,5.55
2023-03-02T20:34:00.397Z,5.48
2023-03-02T20:37:03.835Z,5.44
2023-03-02T20:40:09.814Z,5.42
2023-03-02T20:43:12.857Z,5.33
2023-03-02T20:46:22.083Z,5.26
2023-03-02T20:49:26.039Z,4.99
2023-03-02T20:52:28.866Z,4.73
2023-03-02T20:55:33.163Z,4.49
2023-03-02T20:58:41.210Z,4.29
2023-03-02T21:01:44.344Z,4.18
2023-03-02T21:04:47.438Z,4.02
2023-03-02T21:07:51.286Z,3.97
2023-03-02T21:10:55.436Z,3.85
2023-03-02T21:13:59.458Z,3.90
2023-03-02T21:17:02.465Z,3.96
2023-03-02T21:20:06.145Z,3.91
2023-03-02T21:23:11.224Z,3.95
2023-03-02T21:26:16.539Z,3.90
2023-03-02T21:29:20.847Z,3.86
2023-03-02T21:32:23.598Z,3.83
2023-03-02T21:35:26.705Z,3.80
2023-03-02T21:38:29.882Z,3.74
2023-03-02T21:41:35.844Z,3.71
2023-03-02T21:44:39.157Z,3.60
2023-03-02T21:47:42.140Z,3.55
2023-03-02T21:50:44.852Z,3.47
2023-03-02T21:53:48.114Z,3.44
2023-03-02T21:56:52.072Z,3.42
2023-03-02T21:59:55.473Z,3.34
2023-03-02T22:02:58.278Z,3.29
2023-03-02T22:06:00.897Z,3.20
2023-03-02T22:09:03.852Z,3.10
2023-03-02T22:12:13.198Z,3.05
2023-03-02T22:15:16.151Z,3.02
2023-03-02T22:18:21.138Z,2.97
2023-03-02T22:21:32.068Z,2.98
2023-03-02T22:24:34.955Z,2.96
2023-03-02T22:27:38.871Z,2.94
2023-03-02T22:30:41.863Z,2.92
2023-03-02T22:33:44.516Z,2.88
2023-03-02T22:36:47.148Z,2.76
2023-03-02T22:39:50.642Z,2.73
2023-03-02T22:43:03.373Z,2.70
2023-03-02T22:46:15.338Z,2.64
2023-03-02T22:49:18.761Z,2.72
2023-03-02T22:52:24.599Z,2.74
2023-03-02T22:55:30.068Z,2.81
2023-03-02T22:58:44.561Z,2.86
2023-03-02T23:01:47.492Z,3.05
2023-03-02T23:04:50.377Z,3.18
2023-03-02T23:07:54.904Z,3.35
2023-03-02T23:10:59.251Z,3.50
2023-03-02T23:14:03.795Z,3.61
2023-03-02T23:17:12.982Z,3.73
2023-03-02T23:20:16.922Z,3.78
2023-03-02T23:23:19.935Z,3.75
2023-03-02T23:26:22.640Z,3.69
2023-03-02T23:29:26.799Z,3.60
2023-03-02T23:32:29.385Z,3.51
2023-03-02T23:35:32.326Z,3.49
2023-03-02T23:38:34.938Z,3.56
2023-03-02T23:41:38.883Z,3.63
2023-03-02T23:44:42.883Z,3.54
2023-03-02T23:47:45.485Z,3.45
2023-03-02T23:50:48.061Z,3.30
2023-03-02T23:53:50.897Z,3.17
2023-03-02T23:56:53.478Z,3.10
2023-03-02T23:59:57.597Z,2.97
